Time;durP1;ratioP1;P1;durP2;ratioP2;P2;SDS_P1;SDS_P2;PMS_P1;PMS_P2;Temp;Humidity;BMP_temperature;BMP_pressure;BME280_temperature;BME280_humidity;BME280_pressure;Samples;Min_cycle;Max_cycle;Signal;HPM_P1;HPM_P2
2023/09/06 00:01:29;;;;;;;10.60;7.50;;;19.60;54.00;;;;;;5028610;28;114407;-79
2023/09/06 00:03:56;;;;;;;10.25;6.57;;;19.60;53.90;;;;;;5027330;28;115426;-78
2023/09/06 00:06:24;;;;;;;11.65;6.90;;;19.70;54.00;;;;;;5027781;28;115127;-79
2023/09/06 00:08:51;;;;;;;8.98;6.53;;;19.60;53.80;;;;;;5028059;28;114092;-78
2023/09/06 00:11:18;;;;;;;10.40;6.95;;;19.60;54.00;;;;;;5027443;28;114261;-77
2023/09/06 00:13:45;;;;;;;8.15;6.22;;;19.60;54.00;;;;;;5026007;28;115426;-79
2023/09/06 00:16:13;;;;;;;9.60;6.40;;;19.60;54.00;;;;;;5027529;28;114685;-79
2023/09/06 00:18:39;;;;;;;10.88;7.30;;;19.60;54.00;;;;;;5026740;28;114534;-78
2023/09/06 00:21:07;;;;;;;9.23;6.30;;;19.60;53.90;;;;;;5028217;27;114424;-78
2023/09/06 00:23:34;;;;;;;9.88;6.03;;;19.60;53.90;;;;;;5025794;28;118491;-79
2023/09/06 00:26:01;;;;;;;8.73;6.35;;;19.60;53.90;;;;;;5026972;28;115513;-77
2023/09/06 00:28:28;;;;;;;8.32;6.32;;;19.50;54.00;;;;;;5027955;28;114077;-78
2023/09/06 00:30:56;;;;;;;9.23;6.32;;;19.60;54.00;;;;;;5010047;28;114348;-79
2023/09/06 00:33:33;;;;;;;11.57;6.85;;;19.60;53.90;;;;;;5026251;28;116014;-79
2023/09/06 00:36:06;;;;;;;9.45;6.68;;;19.60;53.90;;;;;;5010709;28;114848;-78
2023/09/06 00:38:33;;;;;;;9.18;6.90;;;19.60;53.80;;;;;;5010767;28;114313;-79
2023/09/06 00:41:00;;;;;;;10.38;6.38;;;19.50;53.80;;;;;;5026731;28;114123;-79
2023/09/06 00:43:28;;;;;;;9.20;6.20;;;19.50;53.80;;;;;;5025320;28;114987;-77
2023/09/06 00:45:55;;;;;;;9.45;6.22;;;19.50;53.90;;;;;;5025581;28;114755;-77
2023/09/06 00:48:24;;;;;;;10.90;6.47;;;19.50;53.90;;;;;;5010126;28;114223;-78
2023/09/06 00:50:53;;;;;;;10.80;6.80;;;19.50;54.00;;;;;;5026685;28;114209;-78
2023/09/06 00:53:21;;;;;;;9.30;6.30;;;19.50;53.80;;;;;;5026833;28;116155;-78
2023/09/06 00:55:51;;;;;;;9.60;6.68;;;19.50;54.00;;;;;;5025480;28;114622;-78
2023/09/06 00:58:19;;;;;;;10.80;7.63;;;19.40;53.90;;;;;;4993416;28;114380;-78
2023/09/06 01:00:47;;;;;;;9.23;6.50;;;19.50;53.50;;;;;;5027326;28;114610;-78
2023/09/06 01:03:15;;;;;;;8.40;5.95;;;19.40;53.90;;;;;;5024767;28;114914;-77
2023/09/06 01:06:03;;;;;;;9.00;5.80;;;19.40;54.00;;;;;;5008867;28;114658;-78
2023/09/06 01:08:46;;;;;;;10.63;6.30;;;19.50;53.90;;;;;;5027032;28;114350;-78
2023/09/06 01:11:24;;;;;;;9.18;6.95;;;19.40;54.00;;;;;;5026458;28;114294;-78
2023/09/06 01:13:53;;;;;;;12.52;7.47;;;19.40;54.10;;;;;;5008057;28;116313;-77
2023/09/06 01:16:29;;;;;;;9.63;7.00;;;19.40;53.80;;;;;;5026108;27;114932;-77
2023/09/06 01:18:57;;;;;;;8.32;6.15;;;19.40;53.80;;;;;;5009452;28;114321;-78
2023/09/06 01:21:40;;;;;;;7.70;5.80;;;19.30;54.20;;;;;;5026072;28;114043;-79
2023/09/06 01:24:07;;;;;;;9.52;6.43;;;19.30;54.20;;;;;;5024622;28;116504;-79
2023/09/06 01:26:34;;;;;;;7.53;5.97;;;19.30;54.20;;;;;;5025324;28;114969;-77
2023/09/06 01:29:01;;;;;;;9.10;6.20;;;19.30;54.10;;;;;;5009963;28;114199;-77
2023/09/06 01:31:28;;;;;;;8.77;6.32;;;19.30;54.20;;;;;;5026443;28;114375;-77
2023/09/06 01:33:56;;;;;;;8.95;6.20;;;19.30;54.10;;;;;;5024572;28;114947;-77
2023/09/06 01:36:23;;;;;;;8.25;6.15;;;19.30;54.20;;;;;;5024882;28;114744;-78
2023/09/06 01:38:53;;;;;;;9.32;6.30;;;19.30;54.10;;;;;;4992601;28;114194;-79
2023/09/06 01:41:20;;;;;;;10.20;6.47;;;19.30;54.10;;;;;;5026960;28;114191;-77
2023/09/06 01:43:54;;;;;;;7.68;5.63;;;19.30;53.80;;;;;;5026234;28;114970;-78
2023/09/06 01:46:24;;;;;;;9.32;6.47;;;19.30;54.10;;;;;;5026160;28;114895;-78
2023/09/06 01:48:51;;;;;;;8.90;5.97;;;19.20;54.10;;;;;;5009223;28;114188;-78
2023/09/06 01:51:19;;;;;;;8.00;6.22;;;19.30;54.10;;;;;;5026183;28;114592;-78
2023/09/06 01:53:46;;;;;;;8.50;6.25;;;19.30;54.20;;;;;;5026198;28;116069;-78
2023/09/06 01:56:13;;;;;;;9.93;6.47;;;19.30;54.10;;;;;;5024895;28;115987;-80
2023/09/06 01:58:40;;;;;;;6.88;5.63;;;19.30;53.90;;;;;;5025189;28;114160;-78
2023/09/06 02:01:09;;;;;;;7.18;6.43;;;19.30;54.00;;;;;;5008944;28;114546;-78
2023/09/06 02:03:37;;;;;;;9.77;6.65;;;19.30;53.70;;;;;;5008230;28;115110;-78
2023/09/06 02:06:04;;;;;;;9.20;6.43;;;19.20;53.90;;;;;;5024160;28;115034;-78
2023/09/06 02:08:32;;;;;;;9.18;6.60;;;19.10;53.90;;;;;;5026529;28;114199;-78
2023/09/06 02:10:59;;;;;;;8.40;6.35;;;19.00;54.20;;;;;;5025228;28;114409;-79
2023/09/06 02:13:26;;;;;;;7.85;5.93;;;19.00;54.30;;;;;;5007611;28;114903;-78
2023/09/06 02:15:53;;;;;;;9.75;6.32;;;19.00;54.20;;;;;;5024475;28;114609;-79
2023/09/06 02:18:20;;;;;;;10.13;6.97;;;19.10;54.30;;;;;;5025257;28;114383;-79
2023/09/06 02:20:50;;;;;;;8.13;6.20;;;19.10;53.90;;;;;;5027012;28;114270;-76
2023/09/06 02:23:17;;;;;;;7.80;5.95;;;19.00;54.30;;;;;;5025076;28;114894;-76
2023/09/06 02:25:45;;;;;;;9.05;5.55;;;19.00;54.50;;;;;;5007399;28;114779;-77
2023/09/06 02:28:14;;;;;;;9.82;6.38;;;19.10;54.40;;;;;;5026344;28;114112;-77
2023/09/06 02:30:41;;;;;;;8.07;6.03;;;19.10;54.40;;;;;;5026394;28;114035;-78
2023/09/06 02:33:11;;;;;;;8.20;6.22;;;19.10;54.20;;;;;;5025069;27;115004;-77
2023/09/06 02:35:41;;;;;;;8.60;6.43;;;19.20;54.10;;;;;;5025271;28;114581;-77
2023/09/06 02:38:09;;;;;;;8.65;6.60;;;19.20;54.20;;;;;;5008589;28;114167;-78
2023/09/06 02:40:37;;;;;;;8.63;6.68;;;19.20;54.10;;;;;;5025297;28;114149;-77
2023/09/06 02:43:04;;;;;;;8.63;5.75;;;19.20;53.70;;;;;;5023925;28;114958;-77
2023/09/06 02:45:37;;;;;;;8.70;6.53;;;19.20;54.00;;;;;;5023661;28;114541;-78
2023/09/06 02:48:12;;;;;;;8.95;6.38;;;19.20;54.00;;;;;;5009024;28;114295;-77
2023/09/06 02:50:40;;;;;;;10.77;6.50;;;19.20;54.00;;;;;;5009603;28;115077;-77
2023/09/06 02:53:26;;;;;;;9.80;6.53;;;19.20;54.00;;;;;;5025047;28;115379;-79
2023/09/06 02:55:53;;;;;;;10.40;7.00;;;19.20;54.00;;;;;;5023468;28;114568;-80
2023/09/06 02:58:23;;;;;;;9.77;7.13;;;19.10;53.90;;;;;;5026140;28;114376;-76
2023/09/06 03:00:57;;;;;;;8.15;5.85;;;19.10;53.70;;;;;;5008178;28;114430;-76
2023/09/06 03:03:28;;;;;;;7.18;5.38;;;19.10;54.10;;;;;;5023935;28;115040;-76
2023/09/06 03:05:57;;;;;;;10.23;6.75;;;19.10;54.20;;;;;;5008248;28;114787;-78
2023/09/06 03:08:27;;;;;;;7.63;5.78;;;19.10;53.90;;;;;;5008271;28;114455;-77
2023/09/06 03:10:56;;;;;;;8.88;6.18;;;19.00;54.20;;;;;;5024392;28;114433;-77
2023/09/06 03:13:23;;;;;;;11.45;6.90;;;19.00;54.20;;;;;;5023276;28;115134;-78
2023/09/06 03:15:51;;;;;;;9.57;6.63;;;19.00;54.00;;;;;;5023325;28;114694;-78
2023/09/06 03:18:19;;;;;;;8.55;6.10;;;18.90;54.00;;;;;;5008271;28;114028;-79
2023/09/06 03:20:47;;;;;;;9.73;6.22;;;19.00;54.30;;;;;;5025117;28;114316;-78
2023/09/06 03:23:23;;;;;;;7.88;5.68;;;19.00;54.30;;;;;;5008539;28;115166;-76
2023/09/06 03:25:54;;;;;;;8.00;5.85;;;19.00;54.40;;;;;;5026396;28;114712;-77
2023/09/06 03:28:25;;;;;;;11.18;7.40;;;19.00;54.30;;;;;;5011380;28;114390;-78
2023/09/06 03:30:53;;;;;;;9.57;6.13;;;19.00;54.00;;;;;;5011255;28;114221;-78
2023/09/06 03:33:20;;;;;;;9.48;6.07;;;19.00;54.00;;;;;;5028229;28;114902;-76
2023/09/06 03:35:48;;;;;;;8.68;6.22;;;19.00;54.10;;;;;;5026810;28;114644;-77
2023/09/06 03:38:17;;;;;;;9.65;6.47;;;19.00;54.20;;;;;;5027271;28;114209;-76
2023/09/06 03:40:45;;;;;;;11.68;7.13;;;19.00;54.20;;;;;;5028896;28;113962;-76
2023/09/06 03:43:15;;;;;;;10.63;6.90;;;19.00;54.20;;;;;;5028288;28;115058;-76
2023/09/06 03:45:46;;;;;;;14.57;8.30;;;19.00;54.10;;;;;;5009487;28;117559;-78
2023/09/06 03:48:13;;;;;;;15.77;8.65;;;19.00;54.00;;;;;;5027308;28;114212;-78
2023/09/06 03:50:40;;;;;;;16.13;9.57;;;19.10;53.90;;;;;;5028673;28;114095;-78
2023/09/06 03:53:07;;;;;;;15.73;8.80;;;19.00;53.70;;;;;;5027552;28;114846;-78
2023/09/06 03:55:34;;;;;;;14.88;8.38;;;19.00;54.00;;;;;;5026860;28;114930;-77
2023/09/06 03:58:07;;;;;;;15.95;8.25;;;18.90;54.10;;;;;;5027051;28;114384;-77
2023/09/06 04:00:39;;;;;;;17.60;8.95;;;18.80;54.10;;;;;;5027118;28;114376;-78
2023/09/06 04:03:12;;;;;;;14.82;8.45;;;18.90;54.30;;;;;;5026110;28;114885;-79
2023/09/06 04:05:45;;;;;;;16.70;9.15;;;18.90;54.40;;;;;;5026104;28;115257;-78
2023/09/06 04:08:17;;;;;;;18.05;9.18;;;18.80;54.20;;;;;;5028084;28;114124;-78
2023/09/06 04:10:52;;;;;;;18.10;9.95;;;18.90;54.30;;;;;;5027188;28;114366;-77
2023/09/06 04:13:19;;;;;;;22.77;11.70;;;18.90;54.20;;;;;;5026092;28;114926;-78
2023/09/06 04:15:47;;;;;;;18.58;10.32;;;18.90;53.80;;;;;;5025938;28;114824;-78
2023/09/06 04:18:15;;;;;;;21.90;10.52;;;18.90;54.10;;;;;;5028136;28;114226;-78
2023/09/06 04:20:46;;;;;;;25.00;12.80;;;18.90;54.10;;;;;;5027538;28;114322;-78
2023/09/06 04:23:16;;;;;;;23.13;12.07;;;18.90;53.70;;;;;;5026009;28;114804;-78
2023/09/06 04:25:49;;;;;;;23.77;12.80;;;18.80;54.10;;;;;;5025710;28;115284;-78
2023/09/06 04:28:20;;;;;;;22.77;12.80;;;18.80;54.10;;;;;;5026614;28;114658;-77
2023/09/06 04:30:51;;;;;;;22.45;11.77;;;18.80;54.10;;;;;;5026950;28;114480;-78
2023/09/06 04:33:22;;;;;;;32.55;18.27;;;18.80;54.30;;;;;;5026026;28;114852;-78
2023/09/06 04:35:54;;;;;;;23.58;14.52;;;18.80;54.10;;;;;;5025548;27;114970;-78
2023/09/06 04:38:23;;;;;;;21.88;12.55;;;18.90;54.20;;;;;;5026779;28;114081;-76
2023/09/06 04:40:56;;;;;;;25.43;16.63;;;19.00;54.20;;;;;;5010618;28;114300;-77
2023/09/06 04:43:24;;;;;;;22.02;12.77;;;19.20;53.80;;;;;;5025708;28;114879;-77
2023/09/06 04:45:54;;;;;;;30.25;17.10;;;19.30;53.60;;;;;;5026014;28;115217;-77
2023/09/06 04:48:23;;;;;;;27.90;16.58;;;19.30;53.20;;;;;;5026552;28;114178;-77
2023/09/06 04:50:56;;;;;;;25.77;14.07;;;19.50;53.00;;;;;;5026744;28;114429;-77
2023/09/06 04:53:24;;;;;;;20.45;12.98;;;19.60;52.90;;;;;;5025227;28;115115;-78
2023/09/06 04:55:53;;;;;;;23.25;13.57;;;19.70;52.60;;;;;;5025563;28;115441;-78
2023/09/06 04:58:35;;;;;;;22.70;12.85;;;19.80;52.10;;;;;;5026013;28;114385;-78
2023/09/06 05:01:06;;;;;;;20.40;12.10;;;19.90;52.10;;;;;;5026212;28;114519;-77
2023/09/06 05:03:35;;;;;;;21.00;13.50;;;20.00;51.90;;;;;;5025481;28;115133;-79
2023/09/06 05:06:03;;;;;;;20.83;12.73;;;20.20;51.70;;;;;;5008903;28;115070;-79
2023/09/06 05:08:32;;;;;;;22.42;11.35;;;20.20;51.50;;;;;;5026146;28;114063;-80
2023/09/06 05:11:06;;;;;;;20.90;11.32;;;20.30;51.00;;;;;;5026493;28;114237;-79
2023/09/06 05:13:38;;;;;;;21.33;11.18;;;20.40;50.80;;;;;;5024900;28;114884;-79
2023/09/06 05:16:07;;;;;;;19.15;10.60;;;20.40;50.70;;;;;;5025279;28;114763;-78
2023/09/06 05:18:36;;;;;;;21.08;11.70;;;20.50;50.60;;;;;;5026415;28;114394;-79
2023/09/06 05:21:04;;;;;;;16.35;10.55;;;20.50;50.50;;;;;;5030968;28;114359;-79
2023/09/06 05:23:35;;;;;;;18.98;11.35;;;20.60;50.30;;;;;;5025600;28;115203;-76
2023/09/06 05:26:03;;;;;;;23.90;12.23;;;20.70;50.20;;;;;;5008495;28;114632;-78
2023/09/06 05:28:42;;;;;;;20.33;11.77;;;20.80;50.00;;;;;;5025983;28;114177;-78
2023/09/06 05:31:10;;;;;;;22.15;12.18;;;20.80;49.90;;;;;;5025796;28;114251;-78
2023/09/06 05:33:39;;;;;;;20.92;12.02;;;20.90;49.50;;;;;;5007932;28;116216;-79
2023/09/06 05:36:08;;;;;;;27.67;14.63;;;20.90;49.60;;;;;;5024799;28;114704;-78
2023/09/06 05:38:36;;;;;;;27.50;15.68;;;20.90;49.40;;;;;;5026776;28;114309;-78
2023/09/06 05:41:04;;;;;;;17.75;10.23;;;21.00;49.40;;;;;;5025561;28;114554;-77
2023/09/06 05:43:38;;;;;;;16.85;9.57;;;21.10;49.00;;;;;;5008705;28;114882;-78
2023/09/06 05:46:06;;;;;;;13.70;9.25;;;21.10;49.00;;;;;;5024317;28;116252;-78
2023/09/06 05:48:54;;;;;;;15.25;8.55;;;21.20;48.70;;;;;;5025142;27;114300;-80
2023/09/06 05:51:24;;;;;;;13.45;7.88;;;21.20;48.70;;;;;;5025294;28;114411;-79
2023/09/06 05:53:51;;;;;;;13.38;8.35;;;21.30;48.70;;;;;;5007698;28;115227;-79
2023/09/06 05:56:19;;;;;;;10.43;6.07;;;21.40;48.30;;;;;;5025719;27;114603;-79
2023/09/06 05:58:47;;;;;;;8.70;6.43;;;21.50;47.80;;;;;;5026722;28;114335;-79
2023/09/06 06:01:17;;;;;;;9.82;6.90;;;21.60;47.70;;;;;;5009253;28;114384;-79
2023/09/06 06:03:45;;;;;;;7.60;5.20;;;21.70;47.50;;;;;;5008255;28;114429;-78
2023/09/06 06:06:16;;;;;;;11.55;7.47;;;21.80;47.20;;;;;;5025180;28;114558;-79
2023/09/06 06:08:43;;;;;;;7.00;5.28;;;21.80;47.20;;;;;;5007847;28;114425;-80
2023/09/06 06:11:11;;;;;;;7.25;5.38;;;21.90;47.00;;;;;;5026303;28;114185;-79
2023/09/06 06:13:38;;;;;;;7.72;5.07;;;21.90;47.10;;;;;;5024782;28;115486;-79
2023/09/06 06:16:06;;;;;;;7.75;4.80;;;22.00;46.80;;;;;;5006853;28;117183;-79
2023/09/06 06:18:34;;;;;;;6.78;5.18;;;22.10;46.50;;;;;;5026317;28;114248;-79
2023/09/06 06:21:02;;;;;;;11.70;8.35;;;22.20;46.70;;;;;;5026218;28;114372;-78
2023/09/06 06:23:29;;;;;;;7.25;5.28;;;22.20;46.70;;;;;;5025530;28;114910;-79
2023/09/06 06:25:57;;;;;;;7.47;5.68;;;22.30;46.40;;;;;;5025047;28;115728;-78
2023/09/06 06:28:24;;;;;;;10.85;6.72;;;22.40;46.30;;;;;;5024721;28;114202;-78
2023/09/06 06:30:52;;;;;;;6.78;5.18;;;22.50;46.20;;;;;;5026109;28;114124;-79
2023/09/06 06:33:19;;;;;;;9.15;5.40;;;22.50;46.20;;;;;;5024811;28;114996;-78
2023/09/06 06:35:46;;;;;;;10.63;6.45;;;22.70;45.90;;;;;;5025164;28;114590;-79
2023/09/06 06:38:13;;;;;;;9.25;6.50;;;22.70;45.90;;;;;;5026248;28;114226;-79
2023/09/06 06:40:40;;;;;;;10.15;5.72;;;22.80;45.80;;;;;;5008160;28;114124;-79
2023/09/06 06:43:07;;;;;;;7.55;5.68;;;22.90;45.50;;;;;;5025016;28;115354;-79
2023/09/06 06:45:35;;;;;;;7.13;5.40;;;22.90;45.60;;;;;;5023644;28;114700;-79
2023/09/06 06:48:02;;;;;;;8.27;5.90;;;23.00;45.50;;;;;;5025891;28;114418;-79
2023/09/06 06:50:29;;;;;;;10.35;6.40;;;23.00;45.40;;;;;;5025950;28;114089;-78
2023/09/06 06:52:56;;;;;;;13.15;6.75;;;23.00;45.80;;;;;;5023627;28;115042;-79
2023/09/06 06:55:23;;;;;;;11.70;7.28;;;22.90;45.90;;;;;;5024805;28;114655;-79
2023/09/06 06:57:50;;;;;;;11.43;6.80;;;22.80;46.50;;;;;;5025395;28;114193;-80
2023/09/06 07:00:20;;;;;;;7.85;6.20;;;22.80;46.60;;;;;;5027005;28;114456;-79
2023/09/06 07:02:47;;;;;;;7.97;5.90;;;22.80;46.80;;;;;;5028273;28;114911;-77
2023/09/06 07:05:14;;;;;;;7.65;5.93;;;22.90;46.30;;;;;;5010299;28;117425;-79
2023/09/06 07:07:41;;;;;;;7.75;5.95;;;22.90;45.90;;;;;;5028058;28;114226;-79
2023/09/06 07:10:09;;;;;;;6.70;5.28;;;22.90;46.00;;;;;;5027989;28;114529;-78
2023/09/06 07:12:36;;;;;;;8.77;5.65;;;22.90;46.20;;;;;;5028184;27;114933;-79
2023/09/06 07:15:03;;;;;;;7.88;5.43;;;22.90;46.20;;;;;;5030211;28;114514;-78
2023/09/06 07:17:31;;;;;;;7.68;5.38;;;22.90;46.50;;;;;;5032470;28;114196;-78
2023/09/06 07:19:59;;;;;;;8.15;5.40;;;22.90;46.60;;;;;;5029190;28;114137;-78
2023/09/06 07:22:26;;;;;;;7.35;5.25;;;22.90;46.80;;;;;;5028035;28;115718;-79
2023/09/06 07:25:13;;;;;;;7.53;5.30;;;22.90;46.80;;;;;;5028259;28;115652;-79
2023/09/06 07:27:40;;;;;;;7.22;5.78;;;22.90;47.00;;;;;;5028927;28;114293;-79
2023/09/06 07:30:07;;;;;;;7.60;5.68;;;22.80;47.00;;;;;;5010584;28;114491;-78
2023/09/06 07:32:35;;;;;;;7.65;5.30;;;22.80;47.30;;;;;;5026886;28;115493;-78
2023/09/06 07:35:02;;;;;;;6.65;4.75;;;22.80;47.70;;;;;;5027580;28;116182;-78
2023/09/06 07:37:30;;;;;;;7.80;4.68;;;22.80;47.70;;;;;;5028712;27;114152;-80
2023/09/06 07:40:00;;;;;;;7.40;5.20;;;22.90;47.40;;;;;;5011281;28;114314;-80
2023/09/06 07:42:29;;;;;;;7.93;4.82;;;22.90;47.10;;;;;;5027702;28;116143;-79
2023/09/06 07:44:56;;;;;;;7.32;4.80;;;23.00;47.30;;;;;;5010062;28;115207;-79
2023/09/06 07:47:23;;;;;;;8.68;4.65;;;23.10;47.20;;;;;;5026985;28;114559;-79
2023/09/06 07:49:51;;;;;;;6.15;4.53;;;23.20;46.80;;;;;;5029123;28;114294;-79
2023/09/06 07:52:18;;;;;;;7.25;4.35;;;23.20;46.70;;;;;;5028052;28;114098;-77
2023/09/06 07:54:45;;;;;;;9.50;4.95;;;23.30;47.00;;;;;;5035518;28;114897;-78
2023/09/06 07:57:12;;;;;;;8.93;4.57;;;23.30;47.30;;;;;;5028457;28;114293;-79
2023/09/06 07:59:40;;;;;;;8.32;5.03;;;23.30;47.60;;;;;;5027702;28;114093;-80
2023/09/06 08:02:07;;;;;;;7.35;4.68;;;23.40;46.60;;;;;;5027549;28;115080;-79
2023/09/06 08:04:34;;;;;;;8.13;5.18;;;23.40;46.80;;;;;;5027498;28;115284;-79
2023/09/06 08:07:01;;;;;;;6.95;5.10;;;23.50;47.10;;;;;;5028218;28;115095;-77
2023/09/06 08:09:28;;;;;;;8.40;4.95;;;23.60;46.80;;;;;;5028331;28;114568;-78
2023/09/06 08:11:56;;;;;;;8.70;5.00;;;23.70;46.00;;;;;;5025574;28;115340;-79
2023/09/06 08:14:23;;;;;;;7.85;5.10;;;23.70;46.20;;;;;;5009278;28;115171;-79
2023/09/06 08:16:52;;;;;;;6.22;4.82;;;23.80;45.80;;;;;;5027091;28;114256;-79
2023/09/06 08:19:20;;;;;;;7.47;4.80;;;23.70;46.00;;;;;;5027799;27;114248;-79
2023/09/06 08:21:47;;;;;;;7.55;5.30;;;23.80;46.20;;;;;;5025882;28;114925;-79
2023/09/06 08:24:17;;;;;;;6.28;5.03;;;23.70;46.20;;;;;;5027286;28;114637;-79
2023/09/06 08:26:47;;;;;;;7.03;5.10;;;23.80;46.30;;;;;;5026209;28;114409;-79
2023/09/06 08:29:15;;;;;;;6.68;4.82;;;23.80;45.60;;;;;;5010944;28;114119;-79
2023/09/06 08:31:42;;;;;;;7.35;5.18;;;23.80;46.00;;;;;;5026907;28;114975;-79
2023/09/06 08:34:10;;;;;;;7.75;4.97;;;23.90;45.90;;;;;;5026856;28;114596;-80
2023/09/06 08:36:37;;;;;;;6.97;4.63;;;23.90;45.70;;;;;;5026208;28;114297;-79
2023/09/06 08:39:07;;;;;;;7.85;4.57;;;23.90;45.70;;;;;;5027906;28;114132;-79
2023/09/06 08:41:34;;;;;;;9.98;6.40;;;24.00;45.70;;;;;;5026592;27;116947;-78
2023/09/06 08:44:06;;;;;;;7.75;4.63;;;24.20;46.10;;;;;;5027272;28;114602;-79
2023/09/06 08:46:36;;;;;;;6.28;4.28;;;24.30;45.30;;;;;;4993781;28;114175;-78
2023/09/06 08:49:03;;;;;;;5.70;4.93;;;24.40;44.70;;;;;;5009982;28;114390;-80
2023/09/06 08:51:35;;;;;;;6.72;4.55;;;24.40;44.50;;;;;;5025403;28;115130;-79
2023/09/06 08:54:06;;;;;;;6.93;4.47;;;24.40;44.40;;;;;;5025972;28;115136;-80
2023/09/06 08:56:33;;;;;;;7.93;4.75;;;24.30;44.50;;;;;;5027627;28;114168;-78
2023/09/06 08:59:00;;;;;;;7.03;4.57;;;24.30;44.50;;;;;;5027499;28;114360;-79
2023/09/06 09:01:28;;;;;;;6.03;4.63;;;24.40;44.50;;;;;;5008404;28;114863;-79
2023/09/06 09:03:55;;;;;;;6.82;4.70;;;24.50;43.70;;;;;;5026682;28;115372;-79
2023/09/06 09:06:23;;;;;;;6.72;4.57;;;24.50;44.00;;;;;;5027665;28;114115;-80
2023/09/06 09:08:50;;;;;;;6.72;4.60;;;24.60;44.50;;;;;;5027549;28;114470;-78
2023/09/06 09:11:21;;;;;;;6.15;4.53;;;24.60;44.00;;;;;;5026985;28;117524;-79
2023/09/06 09:13:48;;;;;;;7.38;4.75;;;24.70;43.90;;;;;;5026489;27;116235;-80
2023/09/06 09:16:16;;;;;;;5.43;4.30;;;24.80;43.60;;;;;;5026406;28;114329;-78
2023/09/06 09:18:44;;;;;;;6.63;5.07;;;24.80;44.30;;;;;;5026647;28;114234;-78
2023/09/06 09:21:12;;;;;;;7.75;5.40;;;24.90;43.50;;;;;;5025006;28;114860;-78
2023/09/06 09:23:50;;;;;;;8.20;4.82;;;25.00;43.00;;;;;;5025680;27;114531;-78
2023/09/06 09:26:19;;;;;;;8.63;5.28;;;25.10;42.40;;;;;;5025084;28;114257;-78
2023/09/06 09:28:47;;;;;;;7.80;5.10;;;25.00;42.30;;;;;;5025519;28;114370;-78
2023/09/06 09:31:18;;;;;;;7.00;5.03;;;24.80;42.90;;;;;;5025734;28;116080;-78
2023/09/06 09:33:54;;;;;;;7.15;4.93;;;24.80;43.00;;;;;;5026130;28;115364;-78
2023/09/06 09:36:22;;;;;;;6.88;5.25;;;24.90;43.20;;;;;;5026973;28;114158;-78
2023/09/06 09:38:49;;;;;;;6.68;4.70;;;24.90;43.00;;;;;;5026977;28;114259;-78
2023/09/06 09:41:17;;;;;;;6.78;4.75;;;25.10;42.90;;;;;;5025506;28;116338;-79
2023/09/06 09:43:44;;;;;;;7.88;4.55;;;25.20;42.60;;;;;;5026017;28;115882;-78
2023/09/06 09:46:11;;;;;;;6.50;5.00;;;25.30;42.70;;;;;;5026794;28;114313;-78
2023/09/06 09:48:39;;;;;;;6.20;4.95;;;25.30;41.80;;;;;;5026919;28;114229;-78
2023/09/06 09:51:07;;;;;;;6.20;5.28;;;25.30;41.40;;;;;;5024445;28;115046;-79
2023/09/06 09:53:35;;;;;;;7.45;4.80;;;25.30;41.80;;;;;;5025781;28;114406;-79
2023/09/06 09:56:08;;;;;;;6.15;4.43;;;25.40;41.90;;;;;;5028107;28;114428;-77
2023/09/06 09:58:40;;;;;;;6.85;4.72;;;25.40;41.50;;;;;;5026836;28;114115;-77
2023/09/06 10:01:10;;;;;;;7.10;4.70;;;25.30;41.60;;;;;;5025411;28;117021;-78
2023/09/06 10:03:38;;;;;;;7.55;5.15;;;25.30;41.80;;;;;;5025987;28;114694;-79
2023/09/06 10:06:06;;;;;;;7.35;4.90;;;25.30;41.10;;;;;;5008307;28;116017;-79
2023/09/06 10:08:35;;;;;;;8.30;5.10;;;25.40;41.20;;;;;;5008443;28;114334;-78
2023/09/06 10:11:07;;;;;;;8.20;4.85;;;25.30;41.10;;;;;;5024331;28;115028;-79
2023/09/06 10:13:37;;;;;;;7.28;4.90;;;25.40;41.00;;;;;;5024283;28;115096;-79
2023/09/06 10:16:06;;;;;;;8.07;4.72;;;25.40;41.10;;;;;;5024310;28;114285;-79
2023/09/06 10:18:35;;;;;;;6.82;4.43;;;25.40;40.70;;;;;;5024719;28;114435;-77
2023/09/06 10:21:04;;;;;;;7.22;4.93;;;25.50;41.00;;;;;;5025314;28;115144;-78
2023/09/06 10:23:31;;;;;;;7.60;4.63;;;25.50;41.30;;;;;;5023909;28;115033;-78
2023/09/06 10:25:59;;;;;;;7.93;4.82;;;25.50;41.70;;;;;;5025881;28;114250;-79
2023/09/06 10:28:32;;;;;;;6.43;4.97;;;25.60;41.70;;;;;;5026185;28;114052;-77
2023/09/06 10:31:07;;;;;;;9.68;4.78;;;25.60;41.60;;;;;;5023744;28;116298;-78
2023/09/06 10:33:42;;;;;;;8.40;4.97;;;25.60;41.70;;;;;;5025481;27;115302;-78
2023/09/06 10:36:11;;;;;;;6.82;4.95;;;25.60;42.00;;;;;;5010243;28;114264;-78
2023/09/06 10:38:51;;;;;;;7.28;4.70;;;25.60;41.80;;;;;;5029408;28;114224;-78
2023/09/06 10:41:19;;;;;;;6.90;4.93;;;25.70;41.60;;;;;;5026282;28;117638;-78
2023/09/06 10:43:58;;;;;;;8.60;4.30;;;25.50;41.20;;;;;;5028513;27;114555;-80
2023/09/06 10:46:29;;;;;;;6.47;4.40;;;25.60;39.90;;;;;;5029340;28;114285;-79
2023/09/06 10:49:12;;;;;;;5.65;4.70;;;25.40;40.50;;;;;;4995050;28;114589;-78
2023/09/06 10:52:03;;;;;;;7.73;4.70;;;25.40;40.60;;;;;;5027152;28;114882;-79
2023/09/06 10:54:39;;;;;;;7.60;4.60;;;25.50;39.90;;;;;;5011051;28;115719;-79
2023/09/06 10:57:15;;;;;;;6.90;4.75;;;25.40;39.70;;;;;;5028136;28;114445;-79
2023/09/06 10:59:43;;;;;;;8.35;4.88;;;25.50;40.20;;;;;;5028531;28;114164;-79
2023/09/06 11:02:22;;;;;;;7.57;4.47;;;25.40;39.80;;;;;;5010610;28;115224;-79
2023/09/06 11:05:08;;;;;;;8.20;4.30;;;25.40;40.30;;;;;;5028128;28;116557;-79
2023/09/06 11:07:43;;;;;;;5.78;4.05;;;25.50;40.10;;;;;;5027170;28;114174;-78
2023/09/06 11:10:13;;;;;;;5.68;3.90;;;25.50;39.70;;;;;;5028017;28;114143;-79
2023/09/06 11:12:41;;;;;;;5.88;3.65;;;25.60;39.60;;;;;;5027728;28;115674;-79
2023/09/06 11:15:10;;;;;;;6.70;3.78;;;25.60;39.70;;;;;;5027666;28;114620;-79
2023/09/06 11:17:37;;;;;;;5.78;4.10;;;25.70;39.40;;;;;;5027894;28;114479;-79
2023/09/06 11:20:16;;;;;;;5.07;4.15;;;25.70;38.80;;;;;;5027524;28;114339;-79
2023/09/06 11:22:56;;;;;;;4.65;4.00;;;25.70;38.70;;;;;;5028166;28;115306;-80
2023/09/06 11:25:25;;;;;;;5.38;3.88;;;25.70;38.70;;;;;;5027205;28;115413;-77
2023/09/06 11:27:55;;;;;;;6.32;3.95;;;25.70;37.70;;;;;;5028803;28;114301;-77
2023/09/06 11:30:23;;;;;;;5.00;4.15;;;25.60;37.60;;;;;;5011333;28;114263;-78
2023/09/06 11:32:55;;;;;;;5.70;3.97;;;25.50;38.20;;;;;;5009292;28;114895;-77
2023/09/06 11:35:34;;;;;;;5.00;3.97;;;25.50;38.40;;;;;;5026415;28;115795;-78
2023/09/06 11:38:02;;;;;;;6.75;4.55;;;25.60;38.30;;;;;;5011152;28;114201;-78
2023/09/06 11:40:31;;;;;;;6.05;4.03;;;25.60;38.40;;;;;;5027239;28;114236;-77
2023/09/06 11:43:04;;;;;;;5.88;4.05;;;25.60;38.00;;;;;;5027759;28;115120;-78
2023/09/06 11:45:32;;;;;;;5.33;3.90;;;25.60;38.20;;;;;;5026081;27;114989;-77
2023/09/06 11:48:04;;;;;;;6.22;3.30;;;25.60;38.30;;;;;;5027082;28;114387;-78
2023/09/06 11:50:35;;;;;;;5.07;3.80;;;25.60;38.20;;;;;;5028633;28;114304;-77
2023/09/06 11:53:08;;;;;;;5.20;3.97;;;25.70;37.80;;;;;;5026180;28;115962;-78
2023/09/06 11:55:41;;;;;;;4.82;3.80;;;25.60;38.00;;;;;;5027587;27;114544;-77
2023/09/06 11:58:16;;;;;;;5.18;3.85;;;25.60;37.80;;;;;;5026799;28;114523;-77
2023/09/06 12:00:47;;;;;;;5.63;3.65;;;25.60;37.90;;;;;;5027256;28;114140;-77
2023/09/06 12:03:16;;;;;;;5.28;4.13;;;25.60;37.40;;;;;;5026224;28;114965;-79
2023/09/06 12:05:47;;;;;;;4.97;3.72;;;25.60;37.70;;;;;;5025959;28;114505;-78
2023/09/06 12:08:21;;;;;;;5.60;4.03;;;25.60;37.20;;;;;;5026748;28;114558;-78
2023/09/06 12:10:54;;;;;;;5.25;3.97;;;25.60;36.60;;;;;;5028204;28;114066;-78
2023/09/06 12:13:31;;;;;;;5.32;4.13;;;25.60;36.60;;;;;;5009558;28;114996;-78
2023/09/06 12:15:59;;;;;;;6.53;3.75;;;25.50;37.00;;;;;;5027213;28;114733;-78
2023/09/06 12:18:30;;;;;;;5.30;4.18;;;25.40;37.40;;;;;;5027855;28;114226;-79
2023/09/06 12:20:58;;;;;;;4.25;3.63;;;25.40;37.20;;;;;;5010858;28;114370;-78
2023/09/06 12:23:28;;;;;;;8.57;4.68;;;25.40;37.70;;;;;;5026585;28;114953;-78
2023/09/06 12:25:57;;;;;;;8.07;5.03;;;25.40;37.90;;;;;;5026789;28;114566;-78
2023/09/06 12:28:24;;;;;;;8.07;4.18;;;25.40;37.80;;;;;;5027709;28;114469;-77
2023/09/06 12:30:55;;;;;;;5.78;4.18;;;25.40;37.90;;;;;;5010201;28;114129;-77
2023/09/06 12:33:23;;;;;;;5.95;3.78;;;25.40;37.70;;;;;;5009578;28;115989;-78
2023/09/06 12:36:01;;;;;;;5.45;4.20;;;25.40;37.40;;;;;;5027031;28;114872;-78
2023/09/06 12:38:29;;;;;;;4.97;3.50;;;25.50;37.10;;;;;;5026833;28;114260;-78
2023/09/06 12:40:57;;;;;;;6.35;4.07;;;25.40;36.80;;;;;;5026503;28;114672;-76
2023/09/06 12:43:26;;;;;;;6.20;4.10;;;25.50;36.60;;;;;;5026799;27;115406;-77
2023/09/06 12:45:54;;;;;;;7.05;3.95;;;25.50;36.30;;;;;;5025122;28;115237;-77